Latest Weather Observations for Butlers Gorge

IDT60801

Issued at 8:03 pm EDT Wednesday 1 April 2015 (issued every 30 minutes, with the page automatically refreshed every 10 minutes)

About weather observations | Map of weather stations | Latest weather observations for TAS | Other Formats
Station Details ID: 096003 Name: BUTLERS GORGE Lat: -42.28 Lon: 146.28 Height: 667.0 m
Data from the previous 72 hours. | See also: Recent months at Butlers Gorge
Date/Time
EDT
Temp
°C
App
Temp
°C
Dew
Point
Rel
Hum
%
Delta-T
°C
Wind Press
QNH
hPa
Press
MSL
hPa
Rain
since 9 am
mm
Dir
 
Spd
km/h
Gust
km/h
Spd
kts
Gust
kts
01/08:00pm 16.0 13.0 7.7 58 4.3 W 13 35 7 19 - - 0.2
01/07:30pm 16.7 12.5 7.6 55 4.7 NW 19 35 10 19 - - 0.2
01/07:00pm 17.2 12.1 7.5 53 5.0 NW 24 39 13 21 - - 0.2
01/06:30pm 17.6 13.2 7.6 52 5.2 NW 20 41 11 22 - - 0.2
01/06:00pm 18.1 13.4 7.8 51 5.4 NW 22 41 12 22 - - 0.2
01/05:30pm 18.4 14.6 7.5 49 5.7 WNW 17 32 9 17 - - 0.2
01/05:00pm 19.0 14.7 6.8 45 6.3 NW 19 33 10 18 - - 0.2
01/04:30pm 19.8 16.5 7.9 46 6.3 NW 15 32 8 17 - - 0.2
01/04:00pm 19.6 16.3 8.0 47 6.2 NW 15 30 8 16 - - 0.2
01/03:30pm 20.0 16.2 7.7 45 6.5 NNW 17 32 9 17 - - 0.2
01/03:00pm 20.1 16.1 8.1 46 6.4 NNW 19 43 10 23 - - 0.2
01/02:30pm 20.3 16.4 7.3 43 6.9 NW 17 30 9 16 - - 0.2
01/02:00pm 20.2 15.7 6.9 42 7.0 NW 20 39 11 21 - - 0.2
01/01:30pm 20.4 16.0 6.7 41 7.2 NW 19 39 10 21 - - 0.2
01/01:00pm 20.4 15.8 6.4 40 7.3 NW 20 35 11 19 - - 0.0
01/12:30pm 19.1 16.6 8.1 49 5.9 NW 11 24 6 13 - - 0.0
01/12:00pm 19.9 16.7 8.6 48 6.1 N 15 32 8 17 - - 0.0
01/11:30am 19.0 15.8 8.4 50 5.7 N 15 26 8 14 - - 0.0
01/11:00am 17.0 15.1 7.6 54 4.9 W 7 17 4 9 - - 0.0
01/10:30am 16.7 14.6 8.1 57 4.5 NNW 9 15 5 8 - - 0.0
01/10:00am 15.7 12.2 7.0 56 4.4 N 15 26 8 14 - - 0.0
01/09:53am 15.6 12.5 7.4 58 4.2 NNW 13 22 7 12 - - 0.0
01/09:30am 10.5 8.9 8.6 88 1.0 WSW 7 9 4 5 - - 0.0
01/09:00am 6.7 4.5 6.0 95 0.3 WSW 7 9 4 5 - - 0.0
01/08:30am 6.1 3.7 5.4 95 0.3 WSW 7 11 4 6 - - 0.0
01/08:00am 5.7 3.2 4.8 94 0.4 WSW 7 9 4 5 - - 0.0
01/07:30am 5.4 2.5 4.7 95 0.3 SW 9 11 5 6 - - 0.0
01/07:00am 5.6 3.3 5.0 96 0.3 WSW 6 9 3 5 - - 0.0
01/06:30am 5.7 3.5 5.1 96 0.3 WSW 6 9 3 5 - - 0.0
01/06:00am 5.6 3.3 5.0 96 0.3 WSW 6 9 3 5 - - 0.0
01/05:30am 5.1 2.7 4.5 96 0.3 WSW 6 9 3 5 - - 0.0
01/05:00am 5.4 3.1 4.8 96 0.3 WSW 6 7 3 4 - - 0.0
01/04:30am 5.6 3.1 5.0 96 0.3 WSW 7 9 4 5 - - 0.0
01/04:00am 6.0 3.6 5.4 96 0.3 WSW 7 9 4 5 - - 0.0
01/03:30am 6.3 4.0 5.6 95 0.3 WSW 7 11 4 6 - - 0.0
01/03:00am 6.7 4.5 6.0 95 0.3 W 7 11 4 6 - - 0.0
01/02:30am 6.8 4.8 6.1 95 0.3 W 6 9 3 5 - - 0.0
01/02:00am 6.9 4.7 6.2 95 0.3 W 7 11 4 6 - - 0.0
01/01:30am 7.2 5.1 6.6 96 0.3 WSW 7 11 4 6 - - 0.0
01/01:00am 7.3 4.8 6.7 96 0.3 WSW 9 11 5 6 - - 0.0
01/12:30am 7.3 5.4 6.6 95 0.3 WSW 6 9 3 5 - - 0.0
01/12:00am 7.7 5.7 7.0 95 0.3 W 7 9 4 5 - - 0.0
 
Date/Time
EDT
Temp
°C
App
Temp
°C
Dew
Point
Rel
Hum
%
Delta-T
°C
Wind Press
QNH
hPa
Press
MSL
hPa
Rain
since 9 am
mm
Dir
 
Spd
km/h
Gust
km/h
Spd
kts
Gust
kts
31/11:30pm 8.0 6.0 7.2 95 0.4 WSW 7 9 4 5 - - 0.0
31/11:00pm 8.0 7.3 7.1 94 0.4 CALM 0 2 0 1 - - 0.0
31/10:30pm 8.5 6.6 7.6 94 0.4 W 7 9 4 5 - - 0.0
31/10:00pm 9.1 7.3 8.0 93 0.5 WSW 7 9 4 5 - - 0.0
31/09:30pm 9.9 8.5 8.7 92 0.6 WSW 6 9 3 5 - - 0.0
31/09:00pm 10.5 10.3 9.1 91 0.7 CALM 0 0 0 0 - - 0.0
31/08:30pm 11.4 10.2 9.5 88 1.0 W 6 7 3 4 - - 0.0
31/08:00pm 12.8 11.5 10.0 83 1.5 WNW 7 11 4 6 - - 0.0
31/07:30pm 12.5 11.4 10.0 85 1.3 W 6 9 3 5 - - 0.0
31/07:00pm 14.0 12.5 10.4 79 1.9 WNW 9 11 5 6 - - 0.0
31/06:30pm 15.6 14.5 9.9 69 3.1 W 6 9 3 5 - - 0.0
31/06:00pm 17.5 16.1 9.4 59 4.4 W 7 15 4 8 - - 0.0
31/05:30pm 17.5 15.3 9.4 59 4.4 WSW 11 19 6 10 - - 0.0
31/05:00pm 18.3 16.9 9.4 56 4.8 W 7 11 4 6 - - 0.0
31/04:30pm 18.0 15.1 8.0 52 5.3 WSW 13 20 7 11 - - 0.0
31/04:00pm 18.3 15.8 8.0 51 5.4 WSW 11 20 6 11 - - 0.0
31/03:30pm 17.9 15.1 8.5 54 5.0 WSW 13 22 7 12 - - 0.0
31/03:00pm 18.1 15.3 8.4 53 5.2 WSW 13 24 7 13 - - 0.0
31/02:30pm 17.7 14.5 8.3 54 5.0 WSW 15 20 8 11 - - 0.0
31/02:00pm 17.5 14.5 7.5 52 5.2 WSW 13 22 7 12 - - 0.0
31/01:30pm 17.6 13.9 6.5 48 5.7 WSW 15 24 8 13 - - 0.0
31/01:00pm 18.4 16.0 8.7 53 5.2 W 11 20 6 11 - - 0.0
31/12:30pm 17.4 15.3 8.3 55 4.8 NW 9 15 5 8 - - 0.0
31/12:00pm 16.0 14.7 10.1 68 3.2 NW 7 13 4 7 - - 0.0
31/11:30am 13.3 11.3 8.6 73 2.4 W 9 15 5 8 - - 0.0
31/11:00am 11.1 8.9 8.0 81 1.6 W 9 15 5 8 - - 0.0
31/10:30am 9.7 7.4 7.5 86 1.1 WSW 9 13 5 7 - - 0.0
31/10:00am 9.2 6.8 7.2 87 1.0 NNW 9 15 5 8 - - 0.0
31/09:30am 7.8 5.8 6.9 94 0.4 NW 7 11 4 6 - - 0.0
31/09:00am 7.3 5.8 6.7 96 0.3 WNW 4 9 2 5 - - 0.0
31/08:30am 6.9 5.0 6.5 97 0.2 W 6 9 3 5 - - 0.0
31/08:00am 6.0 3.9 5.6 97 0.2 WSW 6 7 3 4 - - 0.0
31/07:30am 4.5 3.2 4.1 97 0.2 CALM 0 0 0 0 - - 0.0
31/07:00am 3.4 1.9 3.0 97 0.2 CALM 0 0 0 0 - - 0.0
31/06:30am 3.1 1.5 2.5 96 0.2 CALM 0 0 0 0 - - 0.0
31/06:00am 3.0 1.4 2.6 97 0.2 CALM 0 0 0 0 - - 0.0
31/05:30am 2.4 0.7 1.8 96 0.2 CALM 0 0 0 0 - - 0.0
31/05:00am 1.2 -0.7 0.6 96 0.2 CALM 0 0 0 0 - - 0.0
31/04:30am 1.9 0.1 1.3 96 0.2 CALM 0 0 0 0 - - 0.0
31/04:00am 2.0 0.2 1.4 96 0.2 CALM 0 0 0 0 - - 0.0
31/03:30am 2.4 0.7 1.8 96 0.2 CALM 0 0 0 0 - - 0.0
31/03:00am 3.3 1.0 2.7 96 0.3 WSW 4 9 2 5 - - 0.0
31/02:30am 3.2 1.3 2.6 96 0.3 NE 2 6 1 3 - - 0.0
31/02:00am 3.0 1.0 2.3 95 0.3 WNW 2 7 1 4 - - 0.0
31/01:30am 4.4 3.0 3.8 96 0.3 CALM 0 6 0 3 - - 0.0
31/01:00am 4.7 3.4 4.0 95 0.3 CALM 0 0 0 0 - - 0.0
31/12:30am 4.5 3.1 3.6 94 0.4 CALM 0 0 0 0 - - 0.0
31/12:00am 5.0 2.5 4.0 93 0.4 WSW 6 7 3 4 - - 0.0
 
Date/Time
EDT
Temp
°C
App
Temp
°C
Dew
Point
Rel
Hum
%
Delta-T
°C
Wind Press
QNH
hPa
Press
MSL
hPa
Rain
since 9 am
mm
Dir
 
Spd
km/h
Gust
km/h
Spd
kts
Gust
kts
30/11:30pm 5.9 4.7 4.7 92 0.5 CALM 0 0 0 0 - - 0.0
30/11:00pm 6.7 5.6 4.9 88 0.8 CALM 0 0 0 0 - - 0.0
30/10:30pm 8.6 6.5 5.9 83 1.3 WSW 6 9 3 5 - - 0.0
30/10:00pm 9.6 6.9 5.8 77 1.8 NW 9 17 5 9 - - 0.0
30/09:30pm 10.1 7.8 5.9 75 2.0 NW 7 13 4 7 - - 0.0
30/09:00pm 10.1 7.5 5.9 75 2.0 NW 9 22 5 12 - - 0.0
30/08:30pm 10.1 7.9 6.1 76 1.9 N 7 11 4 6 - - 0.0
30/08:00pm 9.9 7.9 6.1 77 1.8 E 6 9 3 5 - - 0.0
30/07:30pm 10.0 7.9 5.8 75 2.0 NE 6 11 3 6 - - 0.0
30/07:00pm 10.6 7.6 6.0 73 2.2 WNW 11 22 6 12 - - 0.0
30/06:30pm 11.2 8.6 6.3 72 2.4 W 9 17 5 9 - - 0.0
30/06:00pm 11.9 9.0 6.4 69 2.7 WNW 11 26 6 14 - - 0.0
30/05:30pm 12.0 8.3 6.5 69 2.7 WSW 15 26 8 14 - - 0.0
30/05:00pm 12.5 9.0 7.0 69 2.7 WSW 15 32 8 17 - - 0.0
30/04:30pm 12.6 9.0 6.6 67 3.0 WNW 15 24 8 13 - - 0.0
30/04:00pm 13.1 9.5 6.9 66 3.1 WNW 15 24 8 13 - - 0.0
30/03:30pm 12.9 9.9 7.6 70 2.7 NW 13 20 7 11 - - 0.0
30/03:00pm 13.1 9.2 7.3 68 2.9 NW 17 33 9 18 - - 0.0
30/02:30pm 13.0 9.4 6.8 66 3.1 NNW 15 24 8 13 - - 0.0
30/02:00pm 13.1 10.4 7.3 68 2.9 NW 11 28 6 15 - - 0.0
30/01:30pm 13.0 9.6 7.7 70 2.7 NNW 15 32 8 17 - - 0.0
30/01:00pm 13.0 9.6 7.7 70 2.7 NW 15 26 8 14 - - 0.0
30/12:30pm 12.1 8.6 8.6 79 1.8 WNW 17 26 9 14 - - 0.0
30/12:00pm 13.0 9.4 8.5 74 2.3 W 17 30 9 16 - - 0.0
30/11:30am 12.5 9.1 9.1 80 1.8 W 17 39 9 21 - - 0.0
30/11:00am 12.3 9.2 9.0 80 1.7 WSW 15 28 8 15 - - 0.0
30/10:30am 12.2 9.2 9.4 83 1.5 WSW 15 30 8 16 - - 0.0
30/10:00am 12.0 9.0 9.4 84 1.4 WSW 15 24 8 13 - - 0.0
30/09:30am 11.4 8.3 8.8 84 1.3 WSW 15 28 8 15 - - 0.0
30/09:00am 10.7 7.1 8.3 85 1.2 WSW 17 30 9 16 - - 4.6
30/08:30am 10.5 6.7 7.7 83 1.4 SW 17 28 9 15 - - 4.6
30/08:00am 10.1 6.6 7.3 83 1.4 WSW 15 24 8 13 - - 4.6
30/07:30am 10.0 6.1 7.3 83 1.3 WSW 17 28 9 15 - - 4.6
30/07:00am 10.1 6.7 7.5 84 1.3 WSW 15 28 8 15 - - 4.6
30/06:30am 9.9 6.1 7.5 85 1.2 WSW 17 28 9 15 - - 4.6
30/06:00am 9.9 6.9 7.8 87 1.0 WSW 13 22 7 12 - - 4.6
30/05:30am 9.9 6.9 7.5 85 1.2 WSW 13 24 7 13 - - 4.4
30/05:00am 10.3 6.8 7.2 81 1.5 WSW 15 26 8 14 - - 4.4
30/04:30am 10.4 6.9 7.1 80 1.6 WSW 15 30 8 16 - - 4.4
30/04:00am 10.6 7.4 6.9 78 1.8 W 13 26 7 14 - - 4.4
30/03:30am 10.6 6.7 7.1 79 1.7 W 17 35 9 19 - - 4.4
30/03:00am 10.8 7.3 7.1 78 1.8 W 15 30 8 16 - - 4.4
30/02:30am 10.8 7.1 7.9 82 1.5 WSW 17 28 9 15 - - 4.4
30/02:00am 11.0 7.7 8.2 83 1.4 WSW 15 33 8 18 - - 4.4
30/01:30am 11.0 6.9 7.9 81 1.6 WSW 19 39 10 21 - - 4.4
30/01:00am 10.9 7.6 8.1 83 1.4 WSW 15 30 8 16 - - 4.4
30/12:30am 11.0 8.5 8.4 84 1.3 W 11 22 6 12 - - 4.4
30/12:00am 10.9 8.6 9.0 88 1.0 W 11 24 6 13 - - 4.4
 
Date/Time
EDT
Temp
°C
App
Temp
°C
Dew
Point
Rel
Hum
%
Delta-T
°C
Wind Press
QNH
hPa
Press
MSL
hPa
Rain
since 9 am
mm
Dir
 
Spd
km/h
Gust
km/h
Spd
kts
Gust
kts
29/11:30pm 10.7 8.7 8.8 88 1.0 WSW 9 17 5 9 - - 4.4
29/11:00pm 11.0 8.6 8.8 86 1.1 WSW 11 19 6 10 - - 4.4
29/10:30pm 11.0 8.3 8.8 86 1.1 W 13 32 7 17 - - 4.4
29/10:00pm 10.8 8.9 8.9 88 1.0 W 9 22 5 12 - - 4.4
29/09:30pm 10.8 8.9 8.9 88 1.0 W 9 17 5 9 - - 4.2
29/09:00pm 11.1 8.8 9.0 87 1.1 W 11 19 6 10 - - 4.2
29/08:30pm 10.7 9.2 9.1 90 0.8 WSW 7 17 4 9 - - 4.2

Other Formats:

Comma delimited format used in spreadsheet applications
http://www.bom.gov.au/fwo/IDT60801/IDT60801.94959.axf

JavaScript Object Notation format (JSON) in row-major order
http://www.bom.gov.au/fwo/IDT60801/IDT60801.94959.json